Time;durP1;ratioP1;P1;durP2;ratioP2;P2;SDS_P1;SDS_P2;PMS_P1;PMS_P2;Temp;Humidity;BMP_temperature;BMP_pressure;BME280_temperature;BME280_humidity;BME280_pressure;Samples;Min_cycle;Max_cycle;Signal;HPM_P1;HPM_P2
2021/05/25 00:02:15;;;;;;;;;2.50;2.50;;;;;20.94;35.88;99838.91;4994681;28;8791;-53
2021/05/25 00:04:41;;;;;;;;;2.00;2.00;;;;;20.93;35.81;99829.06;4990305;28;8767;-53
2021/05/25 00:07:06;;;;;;;;;3.00;3.00;;;;;20.92;35.86;99822.00;4995928;28;8816;-52
2021/05/25 00:09:31;;;;;;;;;3.00;3.00;;;;;20.92;35.81;99822.00;4993412;28;8796;-52
2021/05/25 00:11:57;;;;;;;;;2.75;2.75;;;;;20.91;36.00;99825.84;4995294;28;8823;-53
2021/05/25 00:14:23;;;;;;;;;3.00;3.00;;;;;20.90;35.92;99827.00;4994224;28;8825;-52
2021/05/25 00:16:50;;;;;;;;;2.50;2.50;;;;;20.88;35.87;99821.84;4992544;28;8775;-52
2021/05/25 00:19:16;;;;;;;;;2.60;2.60;;;;;21.12;35.71;99821.19;4996578;28;9502;-52
2021/05/25 00:21:42;;;;;;;;;2.80;2.80;;;;;21.14;35.55;99818.09;4992400;28;9575;-53
2021/05/25 00:24:07;;;;;;;;;3.00;3.00;;;;;20.98;35.77;99815.97;4981070;28;8805;-53
2021/05/25 00:26:33;;;;;;;;;3.00;3.00;;;;;20.90;35.75;99807.81;4985674;28;8791;-52
2021/05/25 00:28:59;;;;;;;;;3.00;3.00;;;;;20.90;35.94;99819.56;4992542;28;8791;-52
2021/05/25 00:31:24;;;;;;;;;2.50;2.50;;;;;20.89;35.82;99812.47;4993335;28;8828;-52
2021/05/25 00:33:49;;;;;;;;;2.25;2.25;;;;;20.91;35.82;99815.69;4984675;28;8815;-53
2021/05/25 00:36:15;;;;;;;;;3.00;3.00;;;;;20.91;35.94;99817.63;4975703;28;8809;-53
2021/05/25 00:38:40;;;;;;;;;2.25;2.25;;;;;20.91;35.92;99812.16;4986784;28;8959;-53
2021/05/25 00:41:05;;;;;;;;;3.00;3.00;;;;;20.91;35.93;99815.69;4992318;28;9792;-52
2021/05/25 00:43:31;;;;;;;;;2.75;2.75;;;;;20.90;35.89;99813.31;4995506;28;9583;-52
2021/05/25 00:45:56;;;;;;;;;4.00;3.75;;;;;20.90;35.87;99821.53;4993849;28;8849;-52
2021/05/25 00:48:21;;;;;;;;;3.00;2.00;;;;;20.89;35.97;99812.47;4994760;28;8814;-52
2021/05/25 00:50:47;;;;;;;;;2.25;2.25;;;;;20.95;35.96;99807.63;5000524;28;8792;-53
2021/05/25 00:53:13;;;;;;;;;3.00;3.00;;;;;21.20;35.56;99802.28;4998601;28;8925;-52
2021/05/25 00:55:40;;;;;;;;;3.00;3.00;;;;;21.04;35.67;99808.34;4996329;28;11634;-53
2021/05/25 00:58:09;;;;;;;;;3.00;3.00;;;;;20.94;35.84;99811.50;5004670;28;8804;-53
2021/05/25 01:00:41;;;;;;;;;2.00;2.00;;;;;20.89;35.95;99815.22;4997020;28;8781;-52
2021/05/25 01:03:08;;;;;;;;;2.80;2.80;;;;;20.86;35.97;99807.69;4996789;28;8925;-52
2021/05/25 01:05:34;;;;;;;;;2.00;2.00;;;;;20.86;36.09;99801.38;4999901;28;8796;-52
2021/05/25 01:08:00;;;;;;;;;3.20;3.20;;;;;20.85;35.95;99808.00;4994668;28;8811;-52
2021/05/25 01:10:32;;;;;;;;;2.00;2.00;;;;;20.83;35.89;99808.34;4997390;28;8820;-52
2021/05/25 01:13:10;;;;;;;;;3.00;3.00;;;;;20.83;36.04;99802.06;5001982;28;9861;-52
2021/05/25 01:15:36;;;;;;;;;3.00;3.00;;;;;20.83;35.93;99796.56;4990711;28;8787;-52
2021/05/25 01:18:04;;;;;;;;;2.40;2.40;;;;;20.82;35.92;99794.97;4999470;28;8907;-52
2021/05/25 01:20:32;;;;;;;;;3.00;3.00;;;;;20.82;36.04;99801.25;4988532;28;8905;-53
2021/05/25 01:22:57;;;;;;;;;3.00;3.00;;;;;20.80;36.09;99804.31;4978290;28;8795;-53
2021/05/25 01:25:24;;;;;;;;;3.00;3.00;;;;;21.06;35.73;99799.78;4973182;28;8858;-52
2021/05/25 01:27:55;;;;;;;;;2.80;2.80;;;;;21.03;35.66;99798.50;4979559;28;8811;-52
2021/05/25 01:30:29;;;;;;;;;3.00;3.00;;;;;20.87;35.81;99798.31;4977968;28;8814;-52
2021/05/25 01:32:56;;;;;;;;;2.00;2.00;;;;;20.82;35.96;99795.75;4994682;28;8784;-53
2021/05/25 01:35:23;;;;;;;;;2.40;2.40;;;;;20.79;36.10;99796.41;4995797;28;8801;-52
2021/05/25 01:37:49;;;;;;;;;2.00;2.00;;;;;20.74;36.15;99788.41;4997004;28;8776;-52
2021/05/25 01:40:16;;;;;;;;;3.00;3.00;;;;;20.78;35.98;99792.09;4993370;28;8861;-48
2021/05/25 01:42:42;;;;;;;;;2.00;2.00;;;;;20.76;36.11;99795.16;4996635;28;8764;-52
2021/05/25 01:45:11;;;;;;;;;3.00;3.00;;;;;20.75;36.20;99790.00;4996925;28;8779;-52
2021/05/25 01:47:36;;;;;;;;;3.80;3.40;;;;;20.75;36.10;99792.75;4997858;28;8823;-52
2021/05/25 01:50:12;;;;;;;;;3.00;3.00;;;;;20.75;36.19;99796.28;4997591;28;8858;-52
2021/05/25 01:53:06;;;;;;;;;2.20;2.20;;;;;20.74;36.12;99789.22;4996762;28;8752;-52
2021/05/25 01:55:45;;;;;;;;;3.00;3.00;;;;;20.74;36.09;99782.94;4996135;28;9512;-53
2021/05/25 01:58:10;;;;;;;;;2.40;2.40;;;;;20.97;36.04;99786.16;4995568;28;8973;-52
2021/05/25 02:00:37;;;;;;;;;2.25;2.25;;;;;20.97;35.70;99791.63;4992888;28;8792;-52
2021/05/25 02:03:03;;;;;;;;;3.00;3.00;;;;;20.83;35.85;99791.09;4994159;28;8922;-52
2021/05/25 02:05:29;;;;;;;;;2.00;2.00;;;;;20.77;36.08;99791.28;4990391;28;8791;-53
2021/05/25 02:07:55;;;;;;;;;2.00;2.00;;;;;20.73;36.06;99787.59;4983611;28;8799;-52
2021/05/25 02:10:22;;;;;;;;;3.00;3.00;;;;;20.70;36.13;99782.78;4990889;28;8813;-52
2021/05/25 02:12:48;;;;;;;;;2.80;2.80;;;;;20.70;36.13;99788.28;4999584;28;11241;-52
2021/05/25 02:15:13;;;;;;;;;3.00;3.00;;;;;20.69;36.18;99781.19;4992106;28;8870;-53
2021/05/25 02:17:39;;;;;;;;;3.20;3.20;;;;;20.69;36.20;99777.63;4995621;28;9024;-53
2021/05/25 02:20:05;;;;;;;;;3.00;3.00;;;;;20.69;36.35;99780.38;4997814;28;9723;-53
2021/05/25 02:22:30;;;;;;;;;2.20;2.20;;;;;20.69;36.12;99774.91;4992901;28;8837;-52
2021/05/25 02:24:55;;;;;;;;;2.75;2.75;;;;;20.68;36.23;99768.59;4996726;28;8816;-52
2021/05/25 02:27:20;;;;;;;;;2.75;2.75;;;;;20.67;36.23;99772.50;4997526;28;9572;-53
2021/05/25 02:29:46;;;;;;;;;3.75;3.75;;;;;20.72;36.35;99769.56;4992682;28;8823;-52
2021/05/25 02:32:11;;;;;;;;;3.00;3.00;;;;;20.98;35.86;99768.53;4999060;28;8793;-53
2021/05/25 02:34:36;;;;;;;;;3.00;3.00;;;;;20.85;35.81;99772.38;4993880;28;8779;-52
2021/05/25 02:37:02;;;;;;;;;3.50;3.00;;;;;20.73;36.04;99776.63;4977428;28;8923;-52
2021/05/25 02:39:27;;;;;;;;;2.75;2.50;;;;;20.68;36.05;99771.34;4995232;28;8804;-52
2021/05/25 02:41:52;;;;;;;;;2.25;2.25;;;;;20.67;36.06;99771.66;4989940;28;8828;-52
2021/05/25 02:44:18;;;;;;;;;2.00;2.00;;;;;20.66;36.19;99770.88;4996527;28;8893;-53
2021/05/25 02:46:43;;;;;;;;;3.00;3.00;;;;;20.66;36.20;99770.06;4990496;28;8838;-53
2021/05/25 02:49:08;;;;;;;;;2.00;2.00;;;;;20.65;36.27;99774.75;4976088;28;8826;-52
2021/05/25 02:51:33;;;;;;;;;3.00;3.00;;;;;20.64;36.31;99773.16;4978722;28;8826;-52
2021/05/25 02:53:59;;;;;;;;;2.50;2.50;;;;;20.64;36.21;99775.88;4990058;28;8776;-52
2021/05/25 02:56:24;;;;;;;;;3.00;3.00;;;;;20.63;36.32;99777.00;4993311;28;8792;-53
2021/05/25 02:58:51;;;;;;;;;2.25;2.25;;;;;20.62;36.37;99778.16;4994406;28;8820;-52
2021/05/25 03:01:16;;;;;;;;;3.00;3.00;;;;;20.60;36.39;99772.97;4991556;28;8782;-53
2021/05/25 03:03:42;;;;;;;;;3.00;3.00;;;;;20.80;36.21;99765.94;4998768;28;9601;-53
2021/05/25 03:06:08;;;;;;;;;3.00;3.00;;;;;20.89;35.88;99762.34;4997495;28;8796;-52
2021/05/25 03:08:33;;;;;;;;;2.25;2.25;;;;;20.71;36.13;99767.94;4995597;28;9626;-53
2021/05/25 03:10:58;;;;;;;;;3.00;3.00;;;;;20.65;36.13;99772.03;4996774;28;8848;-53
2021/05/25 03:13:24;;;;;;;;;2.50;2.50;;;;;20.62;36.39;99764.47;4989555;28;8830;-52
2021/05/25 03:15:50;;;;;;;;;3.00;3.00;;;;;20.60;36.45;99766.69;4997639;28;8816;-52
2021/05/25 03:18:16;;;;;;;;;2.00;2.00;;;;;20.59;36.38;99771.34;4997726;28;9539;-52
2021/05/25 03:20:45;;;;;;;;;3.00;3.00;;;;;20.60;36.37;99777.66;4985197;28;8822;-52
2021/05/25 03:23:11;;;;;;;;;2.80;2.80;;;;;20.58;36.27;99772.50;4978969;28;9332;-52
2021/05/25 03:25:37;;;;;;;;;2.00;2.00;;;;;20.58;36.35;99774.47;4979100;28;8909;-52
2021/05/25 03:28:03;;;;;;;;;3.00;3.00;;;;;20.57;36.63;99772.84;4995189;28;8796;-53
2021/05/25 03:30:29;;;;;;;;;2.60;2.60;;;;;20.55;36.36;99775.91;4995663;28;8818;-53
2021/05/25 03:32:57;;;;;;;;;2.00;2.00;;;;;20.56;36.29;99772.03;4981312;28;8819;-53
2021/05/25 03:35:24;;;;;;;;;2.00;2.00;;;;;20.57;36.57;99770.91;4985747;28;12234;-53
2021/05/25 03:37:50;;;;;;;;;3.00;3.00;;;;;20.84;36.12;99766.06;4996154;28;8792;-53
2021/05/25 03:40:16;;;;;;;;;2.00;2.00;;;;;20.76;35.95;99775.16;4991537;28;8810;-52
2021/05/25 03:42:46;;;;;;;;;2.00;2.00;;;;;20.62;36.38;99775.41;4974661;28;8810;-53
2021/05/25 03:45:12;;;;;;;;;2.00;2.00;;;;;20.53;36.30;99771.91;4990661;28;8801;-53
2021/05/25 03:47:38;;;;;;;;;3.00;3.00;;;;;20.54;36.44;99777.03;4992082;28;8803;-52
2021/05/25 03:50:08;;;;;;;;;3.00;3.00;;;;;20.54;36.58;99776.22;4990607;28;8874;-53
2021/05/25 03:52:41;;;;;;;;;3.00;3.00;;;;;20.53;36.53;99777.38;4978689;28;8839;-52
2021/05/25 03:55:14;;;;;;;;;3.00;3.00;;;;;20.51;36.49;99783.19;4996497;28;8817;-53
2021/05/25 04:00:06;;;;;;;;;2.25;2.25;;;;;20.50;36.58;99767.88;4991656;28;8812;-53
2021/05/25 04:02:32;;;;;;;;;2.00;2.00;;;;;20.51;36.47;99771.41;4994476;28;8827;-53
2021/05/25 04:04:57;;;;;;;;;2.00;2.00;;;;;20.49;36.48;99781.91;4995524;28;8781;-53
2021/05/25 04:07:23;;;;;;;;;3.00;3.00;;;;;20.51;36.50;99782.38;4993089;28;8853;-52
2021/05/25 04:09:48;;;;;;;;;3.50;3.50;;;;;20.69;36.34;99785.88;4996104;28;8827;-52
2021/05/25 04:12:13;;;;;;;;;2.50;2.50;;;;;20.75;36.09;99784.50;4990266;28;8811;-52
2021/05/25 04:14:38;;;;;;;;;3.00;3.00;;;;;20.60;36.28;99796.84;4995064;28;8850;-52
2021/05/25 04:17:04;;;;;;;;;3.00;3.00;;;;;20.51;36.50;99787.84;4993151;28;8886;-52
2021/05/25 04:19:30;;;;;;;;;2.40;2.40;;;;;20.50;36.51;99787.06;4993669;28;8845;-53
2021/05/25 04:21:55;;;;;;;;;2.00;2.00;;;;;20.49;36.48;99787.38;4997613;28;8819;-52
2021/05/25 04:24:20;;;;;;;;;2.75;2.75;;;;;20.48;36.58;99789.34;4997619;28;9758;-52
2021/05/25 04:26:46;;;;;;;;;2.00;2.00;;;;;20.48;36.41;99791.28;4996720;28;8792;-52
2021/05/25 04:29:11;;;;;;;;;2.00;2.00;;;;;20.48;36.58;99789.34;5000506;28;8811;-52
2021/05/25 04:31:36;;;;;;;;;2.25;2.25;;;;;20.45;36.62;99787.25;4997994;28;8780;-52
2021/05/25 04:34:02;;;;;;;;;2.50;2.50;;;;;20.47;36.54;99797.88;4997987;28;8800;-53
2021/05/25 04:36:28;;;;;;;;;2.40;2.40;;;;;20.47;36.67;99795.94;4981146;28;8981;-53
2021/05/25 04:38:53;;;;;;;;;3.00;3.00;;;;;20.45;36.65;99800.16;4989294;28;8860;-52
2021/05/25 04:41:19;;;;;;;;;2.25;2.25;;;;;20.46;36.63;99804.50;4996962;28;8881;-52
2021/05/25 04:43:44;;;;;;;;;2.00;2.00;;;;;20.74;36.23;99804.84;4996324;28;8873;-52
2021/05/25 04:46:10;;;;;;;;;2.00;2.00;;;;;20.65;36.43;99802.16;4994350;28;8829;-52
2021/05/25 04:48:35;;;;;;;;;3.00;3.00;;;;;20.52;36.49;99803.16;5000820;28;11442;-52
2021/05/25 04:51:00;;;;;;;;;2.00;2.00;;;;;20.48;36.61;99799.50;4996550;28;8855;-53
2021/05/25 04:53:26;;;;;;;;;3.00;3.00;;;;;20.44;36.53;99796.63;4998008;28;8767;-52
2021/05/25 04:55:51;;;;;;;;;3.00;3.00;;;;;20.43;36.51;99795.78;5000326;28;8823;-52
2021/05/25 04:58:17;;;;;;;;;3.00;3.00;;;;;20.43;36.51;99798.53;4995155;28;8942;-51
2021/05/25 05:00:42;;;;;;;;;2.20;2.20;;;;;20.40;36.64;99791.00;5002008;28;8840;-52
2021/05/25 05:03:08;;;;;;;;;2.00;2.00;;;;;20.42;36.57;99790.63;4996266;28;8823;-52
2021/05/25 05:05:33;;;;;;;;;3.00;3.00;;;;;20.41;36.74;99789.84;4987517;28;8810;-52
2021/05/25 05:07:58;;;;;;;;;3.00;3.00;;;;;20.41;36.82;99787.09;4978446;28;8805;-53
2021/05/25 05:10:24;;;;;;;;;3.00;3.00;;;;;20.42;36.65;99791.47;4980344;28;8827;-53
2021/05/25 05:12:49;;;;;;;;;2.00;2.00;;;;;20.41;36.66;99789.03;4980312;28;8799;-53
2021/05/25 05:15:15;;;;;;;;;2.00;2.00;;;;;20.55;36.66;99791.56;4992904;28;8907;-52
2021/05/25 05:17:42;;;;;;;;;2.60;2.60;;;;;20.73;36.42;99792.28;4985236;28;8814;-52
2021/05/25 05:20:10;;;;;;;;;2.40;2.40;;;;;20.54;36.64;99792.69;4989648;28;8791;-52
2021/05/25 05:22:36;;;;;;;;;2.60;2.60;;;;;20.47;36.53;99790.44;4997405;28;8955;-52
2021/05/25 05:25:04;;;;;;;;;3.00;3.00;;;;;20.40;36.88;99779.22;5001649;28;8843;-53
2021/05/25 05:27:29;;;;;;;;;3.00;3.00;;;;;20.42;36.70;99785.97;4996511;28;8799;-53
2021/05/25 05:29:54;;;;;;;;;2.50;2.50;;;;;20.42;36.69;99785.97;4992243;28;8800;-53
2021/05/25 05:32:20;;;;;;;;;3.00;3.00;;;;;20.41;36.89;99780.81;4998989;28;8835;-53
2021/05/25 05:34:45;;;;;;;;;2.50;2.50;;;;;20.40;36.68;99777.28;4997885;28;8830;-52
2021/05/25 05:37:10;;;;;;;;;3.00;3.00;;;;;20.40;36.82;99779.22;5001851;28;8799;-53
2021/05/25 05:39:36;;;;;;;;;2.00;2.00;;;;;20.39;36.80;99786.63;4997646;28;8898;-53
2021/05/25 05:42:01;;;;;;;;;3.00;3.00;;;;;20.39;36.70;99778.41;4975456;28;8841;-53
2021/05/25 05:44:26;;;;;;;;;3.00;2.25;;;;;20.38;36.66;99782.28;4977829;28;9578;-53
2021/05/25 05:46:52;;;;;;;;;3.00;3.00;;;;;20.34;36.81;99780.53;4979166;28;8792;-52
2021/05/25 05:49:18;;;;;;;;;2.00;2.00;;;;;20.64;36.59;99789.59;4997415;28;8799;-53
2021/05/25 05:51:44;;;;;;;;;3.00;3.00;;;;;20.62;36.45;99786.38;4998903;28;8840;-53
2021/05/25 05:54:11;;;;;;;;;3.00;3.00;;;;;20.48;36.71;99785.78;4992298;28;8810;-53
2021/05/25 05:56:36;;;;;;;;;3.80;3.00;;;;;20.41;36.80;99786.31;4983012;28;8781;-53
2021/05/25 05:59:02;;;;;;;;;2.00;2.00;;;;;20.40;36.75;99779.22;4981691;28;9561;-53
2021/05/25 06:01:27;;;;;;;;;2.75;2.75;;;;;20.39;36.83;99788.59;4946015;28;61509;-53
2021/05/25 06:03:52;;;;;;;;;2.00;2.00;;;;;20.38;36.73;99778.75;4983786;28;8817;-53
2021/05/25 06:06:18;;;;;;;;;2.00;2.00;;;;;20.38;36.71;99793.22;4993549;28;9582;-53
2021/05/25 06:08:43;;;;;;;;;3.00;3.00;;;;;20.35;36.84;99779.41;4995647;28;8833;-53
2021/05/25 06:11:10;;;;;;;;;2.00;2.00;;;;;20.37;36.91;99780.69;4997899;28;8894;-52
2021/05/25 06:13:36;;;;;;;;;2.00;2.00;;;;;20.35;36.85;99782.13;4992758;28;9535;-53
2021/05/25 06:16:03;;;;;;;;;2.80;2.80;;;;;20.35;36.80;99777.47;4999950;28;8796;-53
2021/05/25 06:18:29;;;;;;;;;2.80;2.80;;;;;20.35;36.82;99780.22;4982424;28;8791;-53
2021/05/25 06:20:54;;;;;;;;;2.00;2.00;;;;;20.43;37.07;99768.38;4991702;28;8817;-53
2021/05/25 06:23:19;;;;;;;;;3.00;3.00;;;;;20.68;36.65;99768.59;5003055;28;8787;-53
2021/05/25 06:25:45;;;;;;;;;3.00;3.00;;;;;20.51;36.76;99774.97;4996019;28;8775;-53
2021/05/25 06:28:11;;;;;;;;;2.20;2.20;;;;;20.42;36.78;99772.28;4991221;28;8828;-53
2021/05/25 06:30:37;;;;;;;;;4.00;3.00;;;;;20.38;36.82;99774.06;4991688;28;8795;-54
2021/05/25 06:33:03;;;;;;;;;2.00;2.00;;;;;20.37;36.82;99777.16;4990856;28;8799;-53
2021/05/25 06:35:28;;;;;;;;;3.00;3.00;;;;;20.36;37.11;99773.59;4991398;28;8795;-53
2021/05/25 06:37:54;;;;;;;;;2.00;2.00;;;;;20.34;36.86;99775.84;4999102;28;12208;-53
2021/05/25 06:40:19;;;;;;;;;2.00;2.00;;;;;20.36;36.82;99776.31;4993110;28;8948;-53
2021/05/25 06:42:44;;;;;;;;;3.00;3.00;;;;;20.36;36.75;99783.75;5001110;28;8803;-53
2021/05/25 06:45:11;;;;;;;;;3.00;3.00;;;;;20.35;36.88;99774.75;4988466;28;8902;-53
2021/05/25 06:47:37;;;;;;;;;2.80;2.80;;;;;20.34;36.88;99775.84;4988326;28;9547;-53
2021/05/25 06:50:04;;;;;;;;;3.00;3.00;;;;;20.35;36.82;99777.47;4991371;28;8782;-54
2021/05/25 06:52:30;;;;;;;;;4.00;4.00;;;;;20.36;36.96;99776.31;4993687;28;9664;-53
2021/05/25 06:54:55;;;;;;;;;2.50;2.50;;;;;20.56;36.74;99783.00;4984387;28;8807;-54
2021/05/25 06:57:20;;;;;;;;;3.00;3.00;;;;;20.59;36.78;99781.53;4995618;28;8801;-54
2021/05/25 06:59:45;;;;;;;;;3.00;3.00;;;;;20.48;36.82;99789.34;4990395;28;8791;-54
2021/05/25 07:02:11;;;;;;;;;2.50;2.50;;;;;20.42;36.86;99783.25;4991834;28;8796;-53
2021/05/25 07:04:36;;;;;;;;;2.75;2.75;;;;;20.40;36.95;99790.16;4996216;28;8748;-53
2021/05/25 07:07:02;;;;;;;;;2.75;2.75;;;;;20.38;37.01;99789.69;4995125;28;9316;-53
2021/05/25 07:09:27;;;;;;;;;2.80;2.80;;;;;20.36;37.07;99791.97;4994168;28;8811;-53
2021/05/25 07:11:53;;;;;;;;;3.75;3.75;;;;;20.35;36.97;99793.91;4994336;28;8828;-53
2021/05/25 07:14:18;;;;;;;;;2.25;2.25;;;;;20.35;36.91;99796.66;5002611;28;8827;-53
2021/05/25 07:16:43;;;;;;;;;2.00;2.00;;;;;20.34;37.08;99797.78;4992540;28;8796;-53
2021/05/25 07:19:09;;;;;;;;;2.50;2.25;;;;;20.34;36.90;99796.97;4996791;28;8828;-53
2021/05/25 07:21:34;;;;;;;;;2.00;2.00;;;;;20.34;37.07;99796.97;5002830;28;8792;-53
2021/05/25 07:23:59;;;;;;;;;3.00;3.00;;;;;20.34;36.98;99797.78;4988520;28;8787;-53
2021/05/25 07:26:25;;;;;;;;;3.00;3.00;;;;;20.35;37.20;99793.91;4995514;28;8799;-53
2021/05/25 07:28:51;;;;;;;;;3.00;3.00;;;;;20.61;36.92;99790.22;4997156;28;8826;-53
2021/05/25 07:31:18;;;;;;;;;4.00;4.00;;;;;20.52;37.13;99787.53;4994806;28;8827;-53
2021/05/25 07:33:46;;;;;;;;;2.00;2.00;;;;;20.41;37.16;99787.09;5000137;28;8802;-53
2021/05/25 07:36:12;;;;;;;;;3.00;3.00;;;;;20.37;37.11;99780.69;4998953;28;8852;-53
2021/05/25 07:38:38;;;;;;;;;3.00;2.75;;;;;20.36;37.19;99783.75;4996573;28;8779;-53
2021/05/25 07:41:03;;;;;;;;;3.00;3.00;;;;;20.36;37.21;99778.28;4982840;28;8961;-53
2021/05/25 07:43:30;;;;;;;;;3.00;3.00;;;;;20.35;36.96;99779.41;4983570;28;10263;-53
2021/05/25 07:45:56;;;;;;;;;2.20;2.20;;;;;20.33;37.20;99779.72;4982723;28;8841;-53
2021/05/25 07:48:23;;;;;;;;;3.00;3.00;;;;;20.35;37.17;99787.63;4969269;28;8809;-54
2021/05/25 07:50:48;;;;;;;;;2.40;2.40;;;;;20.33;37.18;99787.16;4984935;28;8765;-53
2021/05/25 07:53:14;;;;;;;;;2.50;2.50;;;;;20.33;37.18;99790.69;4990176;28;8803;-52
2021/05/25 07:55:39;;;;;;;;;3.00;3.00;;;;;20.33;37.08;99792.63;4979917;28;8737;-53
2021/05/25 07:58:05;;;;;;;;;3.00;3.00;;;;;20.31;37.25;99790.22;5000849;28;8799;-53
2021/05/25 08:00:32;;;;;;;;;2.20;2.20;;;;;20.42;37.22;99785.97;5004438;28;9453;-53
2021/05/25 08:02:58;;;;;;;;;3.60;3.60;;;;;20.60;36.96;99805.06;4987358;28;8791;-53
2021/05/25 08:05:25;;;;;;;;;3.50;3.50;;;;;20.42;37.13;99794.19;4992704;28;8830;-53
2021/05/25 08:07:51;;;;;;;;;3.00;3.00;;;;;20.32;37.14;99791.81;5002126;28;8768;-53
2021/05/25 08:10:17;;;;;;;;;2.40;2.40;;;;;20.34;37.19;99795.03;4996374;28;8809;-53
2021/05/25 08:12:43;;;;;;;;;3.00;3.00;;;;;20.35;37.18;99793.09;5002010;28;8820;-53
2021/05/25 08:15:11;;;;;;;;;3.00;3.00;;;;;20.33;37.16;99793.41;4995967;28;8850;-54
2021/05/25 08:20:16;;;;;;;;;3.00;3.00;;;;;20.33;37.25;99796.16;4994222;28;8764;-53
2021/05/25 08:22:43;;;;;;;;;3.20;3.00;;;;;20.34;37.30;99802.47;4997010;28;9079;-54
2021/05/25 08:25:10;;;;;;;;;3.00;3.00;;;;;20.34;37.10;99791.50;4996038;28;8885;-53
2021/05/25 08:27:36;;;;;;;;;3.00;3.00;;;;;20.32;37.35;99797.31;4988020;28;8931;-53
2021/05/25 08:30:02;;;;;;;;;3.00;3.00;;;;;20.30;37.31;99794.09;4979031;28;14224;-54
2021/05/25 08:32:28;;;;;;;;;3.00;3.00;;;;;20.32;37.53;99794.56;4995232;28;8949;-53
2021/05/25 08:34:53;;;;;;;;;4.00;4.00;;;;;20.57;37.16;99794.75;5001340;28;8772;-53
2021/05/25 08:37:18;;;;;;;;;3.25;3.25;;;;;20.48;37.13;99794.00;4999204;28;8917;-53
2021/05/25 08:39:44;;;;;;;;;2.25;2.25;;;;;20.37;37.34;99797.13;4993822;28;8807;-53
2021/05/25 08:42:09;;;;;;;;;2.00;2.00;;;;;20.34;37.26;99788.75;4978651;28;8833;-53
2021/05/25 08:44:35;;;;;;;;;3.00;3.00;;;;;20.32;37.42;99800.03;4973007;28;8803;-53
2021/05/25 08:47:00;;;;;;;;;3.00;3.00;;;;;20.33;37.30;99800.84;4979278;28;8766;-53
2021/05/25 08:49:26;;;;;;;;;3.75;3.75;;;;;20.32;37.27;99810.22;4985722;28;8944;-53
2021/05/25 08:51:51;;;;;;;;;3.00;2.75;;;;;20.26;37.31;99801.34;4986021;28;9390;-53
2021/05/25 08:54:18;;;;;;;;;3.00;3.00;;;;;20.26;37.26;99804.09;4990745;28;8799;-53
2021/05/25 08:56:43;;;;;;;;;2.60;2.60;;;;;20.31;37.23;99816.81;4997946;28;8775;-53
2021/05/25 08:59:08;;;;;;;;;2.00;2.00;;;;;20.30;37.40;99823.41;4999498;28;8806;-53
2021/05/25 09:01:36;;;;;;;;;3.75;3.75;;;;;20.30;37.30;99821.50;4997461;28;8811;-54
2021/05/25 09:04:04;;;;;;;;;4.00;4.00;;;;;20.30;37.30;99817.94;4996338;28;8829;-53
2021/05/25 09:06:48;;;;;;;;;3.00;3.00;;;;;20.50;37.28;99813.66;4991247;28;8788;-53
2021/05/25 09:09:16;;;;;;;;;3.00;3.00;;;;;20.54;37.16;99820.06;4993879;28;8861;-53
2021/05/25 09:12:01;;;;;;;;;3.20;3.20;;;;;20.40;37.26;99814.81;4999989;28;8825;-53
2021/05/25 09:14:28;;;;;;;;;3.00;3.00;;;;;20.33;37.31;99812.59;4998171;28;8773;-53
2021/05/25 09:17:16;;;;;;;;;3.40;3.20;;;;;20.32;37.41;99827.44;4996247;28;8825;-53
2021/05/25 09:19:46;;;;;;;;;3.00;3.00;;;;;20.31;37.40;99822.28;4994967;28;8759;-53
2021/05/25 09:22:31;;;;;;;;;3.20;3.20;;;;;20.31;37.47;99831.31;5001503;28;8796;-53
2021/05/25 09:25:00;;;;;;;;;2.00;2.00;;;;;20.29;37.37;99833.56;4994139;28;8806;-53
2021/05/25 09:27:28;;;;;;;;;3.00;3.00;;;;;20.30;37.40;99832.44;5002915;28;8823;-53
2021/05/25 09:30:12;;;;;;;;;3.00;3.00;;;;;20.29;37.40;99832.78;4999126;28;9657;-53
2021/05/25 09:32:43;;;;;;;;;3.00;3.00;;;;;20.24;37.50;99823.63;4992550;28;8909;-53
2021/05/25 09:35:09;;;;;;;;;3.20;3.20;;;;;20.25;37.58;99827.16;4994124;28;8819;-53
2021/05/25 09:37:46;;;;;;;;;4.00;4.00;;;;;20.28;37.58;99831.97;4997191;28;8819;-53
2021/05/25 09:40:13;;;;;;;;;3.20;3.20;;;;;20.50;37.27;99824.63;4994039;28;8897;-53
2021/05/25 09:42:39;;;;;;;;;3.20;3.20;;;;;20.51;37.63;99826.22;4998827;28;8800;-54
2021/05/25 09:45:11;;;;;;;;;3.25;3.25;;;;;20.75;35.64;99828.38;4992375;28;9635;-54
2021/05/25 09:47:42;;;;;;;;;3.00;3.00;;;;;20.89;34.78;99825.38;4991061;28;8810;-54
2021/05/25 09:50:13;;;;;;;;;3.00;3.00;;;;;21.02;34.47;99826.25;4997873;28;8772;-54
2021/05/25 09:53:13;;;;;;;;;3.00;3.00;;;;;21.13;35.45;99816.50;4992901;28;8763;-53
2021/05/25 09:55:53;;;;;;;;;2.40;2.40;;;;;21.02;35.93;99816.13;4986317;28;8764;-54
2021/05/25 09:58:24;;;;;;;;;3.00;3.00;;;;;20.89;36.68;99812.47;4995085;28;8808;-53
2021/05/25 10:00:49;;;;;;;;;3.00;3.00;;;;;20.60;36.98;99816.03;4995837;28;9528;-53
2021/05/25 10:03:22;;;;;;;;;3.00;3.00;;;;;20.90;35.06;99824.28;4982995;28;8869;-53
2021/05/25 10:05:50;;;;;;;;;3.00;3.00;;;;;21.01;34.89;99819.97;4996401;28;9903;-54
2021/05/25 10:08:17;;;;;;;;;3.00;3.00;;;;;21.12;34.17;99812.94;4994457;28;8820;-53
2021/05/25 10:10:43;;;;;;;;;2.00;2.00;;;;;21.23;35.08;99809.81;4993399;28;8767;-53
2021/05/25 10:13:11;;;;;;;;;2.80;2.80;;;;;21.17;35.68;99810.00;4994586;28;9510;-54
2021/05/25 10:15:37;;;;;;;;;3.00;3.00;;;;;21.10;36.12;99803.47;4991618;28;8798;-54
2021/05/25 10:20:33;;;;;;;;;2.00;2.00;;;;;20.98;35.03;99804.19;4987822;28;8933;-54
2021/05/25 10:22:58;;;;;;;;;2.00;2.00;;;;;21.07;34.57;99795.91;4991129;28;8783;-53
2021/05/25 10:25:27;;;;;;;;;3.00;3.00;;;;;21.16;34.11;99796.66;4984417;28;8810;-53
2021/05/25 10:27:52;;;;;;;;;2.00;2.00;;;;;21.32;34.73;99785.88;4995624;28;9135;-53
2021/05/25 10:30:21;;;;;;;;;2.25;2.25;;;;;21.25;35.70;99785.59;4994675;28;8792;-53
2021/05/25 10:32:46;;;;;;;;;2.00;2.00;;;;;21.15;35.98;99784.84;5000402;28;8780;-53
2021/05/25 10:35:17;;;;;;;;;2.00;2.00;;;;;20.87;36.03;99792.03;4990551;28;8783;-54
2021/05/25 10:38:03;;;;;;;;;2.60;2.60;;;;;20.94;35.41;99784.06;4987130;28;8907;-54
2021/05/25 10:40:37;;;;;;;;;3.00;3.00;;;;;21.03;35.37;99790.28;4997339;28;8837;-53
2021/05/25 10:43:30;;;;;;;;;2.60;2.60;;;;;21.17;34.28;99782.56;4994402;28;8800;-53
2021/05/25 10:46:11;;;;;;;;;3.00;3.00;;;;;21.31;35.02;99781.50;4989694;28;8775;-54
2021/05/25 10:51:49;;;;;;;;;3.00;3.00;;;;;21.01;36.06;99776.09;4990662;28;8822;-54
2021/05/25 10:54:43;;;;;;;;;3.00;3.00;;;;;20.86;36.58;99776.69;4995930;28;8780;-54
2021/05/25 10:57:36;;;;;;;;;2.20;2.20;;;;;21.10;34.99;99767.81;5000358;28;9619;-53
2021/05/25 11:00:08;;;;;;;;;2.00;2.00;;;;;21.16;34.04;99774.72;4999298;28;8862;-53
2021/05/25 11:02:58;;;;;;;;;2.20;2.20;;;;;21.38;34.65;99771.56;4996042;28;8807;-54
2021/05/25 11:05:26;;;;;;;;;2.00;2.00;;;;;21.32;35.31;99772.16;4997031;28;8807;-53
2021/05/25 11:07:52;;;;;;;;;2.00;2.00;;;;;21.25;35.78;99771.88;4997185;28;8768;-54
2021/05/25 11:10:26;;;;;;;;;2.00;2.00;;;;;20.96;35.92;99768.09;4999410;28;8804;-53
2021/05/25 11:13:14;;;;;;;;;2.00;2.00;;;;;21.05;35.36;99762.53;4984702;28;8868;-54
2021/05/25 11:16:19;;;;;;;;;2.00;2.00;;;;;21.20;34.48;99763.88;4984366;28;8846;-53
2021/05/25 11:19:10;;;;;;;;;2.00;2.00;;;;;21.33;34.00;99762.75;4994079;28;8804;-53
2021/05/25 11:24:46;;;;;;;;;3.00;3.00;;;;;21.33;35.50;99771.00;4998536;28;8795;-54
2021/05/25 11:27:28;;;;;;;;;2.00;2.00;;;;;21.04;35.88;99769.97;4998575;28;8804;-53
2021/05/25 11:30:08;;;;;;;;;3.00;3.00;;;;;21.00;36.10;99760.78;4984249;28;8823;-53
2021/05/25 11:32:45;;;;;;;;;3.20;3.20;;;;;21.17;35.23;99760.63;4988296;28;8800;-54
2021/05/25 11:35:13;;;;;;;;;3.00;3.00;;;;;21.18;34.60;99765.00;4996679;28;8779;-54
2021/05/25 11:37:41;;;;;;;;;3.00;3.00;;;;;21.38;34.46;99768.84;4981520;28;9512;-53
2021/05/25 11:40:10;;;;;;;;;3.00;3.00;;;;;21.38;35.03;99757.06;5003723;28;8808;-53
2021/05/25 11:42:37;;;;;;;;;2.00;2.00;;;;;21.33;35.77;99757.28;4998025;28;8818;-53
2021/05/25 11:45:03;;;;;;;;;2.00;2.00;;;;;21.05;35.81;99760.56;4992109;28;8819;-53
2021/05/25 11:47:28;;;;;;;;;3.00;3.00;;;;;20.91;36.38;99754.56;4995691;28;8899;-51
2021/05/25 11:49:55;;;;;;;;;2.50;2.50;;;;;21.15;34.99;99760.19;4989106;28;8766;-52
2021/05/25 11:52:36;;;;;;;;;3.00;3.00;;;;;21.16;34.98;99755.50;4996167;28;9060;-52
2021/05/25 11:55:07;;;;;;;;;2.00;2.00;;;;;21.42;34.49;99741.53;5001772;28;8819;-52
2021/05/25 11:57:47;;;;;;;;;3.00;3.00;;;;;21.41;35.26;99736.41;4993953;28;8818;-52
2021/05/25 12:00:17;;;;;;;;;2.80;2.80;;;;;21.35;35.69;99741.28;4997999;28;8799;-52